Stehekin, WA (98852)

7:06 PM PDT on July 23, 2014 (GMT -0700)
Omak (KOMK) Elev 1302 ft | 48.46 °N, 119.52 °W | Change Station

Current weather conditions updated 13 minutes ago

Overcast
Overcast
70 °F
Feels Like 70 °F
N
10
Wind Variable Wind from South

Tomorrow is forecast to be nearly the same temperature as today. Morning showers.

Today
High -- | Low -- °F
--% Chance of Precip.
Yesterday
High -- | Low -- °F
Precip. -- in
5:26 AM 8:50 PM
Waning Crescent, 7% visible
Pressure 29.82 in
Visibility 10.0 miles
Clouds Clear
Dew Point 58 °F
Humidity 65%
Rainfall 0.07 in
Snow Depth 0 in
UV 1 out of 12
Pollen .60 out of 12
Air Quality Not available.
Flu Activity Not available.
METAR KOMK 240153Z AUTO 19009KT 10SM CLR 21/14 A2984 RMK AO2 RAE01 SLP098 P0000 T02110144

More Conditions Fewer Conditions

Pressure 29.82 in
Visibility 10.0 miles
Clouds Clear
Dew Point 58 °F
Humidity 65%
Rainfall 0.07 in
Snow Depth 0 in
UV 1 out of 12
Pollen .60 out of 12
Air Quality Not available.
Flu Activity Not available.
METAR KOMK 240153Z AUTO 19009KT 10SM CLR 21/14 A2984 RMK AO2 RAE01 SLP098 P0000 T02110144

More Conditions Fewer Conditions

10-Day Weather Forecast

Almanac

Astronomy

Jul. 23, 2014 Rise Set
Actual Time 5:26 AM PDT 8:50 PM PDT
Civil Twilight 4:48 AM PDT 9:29 PM PDT
Nautical Twilight 3:57 AM PDT 10:19 PM PDT
Astronomical Twilight 2:50 AM PDT 11:25 PM PDT
Moon 2:51 AM PDT (7/23) 6:21 PM PDT (7/23)
Length of Visible Light 16h 40m
Length of Day
15h 24m
Tomorrow will be 2m 23s shorter.
Waning Crescent, 7% of the Moon is Illuminated
Today
Waning Crescent
Jul 26
New
Aug 3
First Quarter
Aug 10
Full
Aug 17
Last Quarter

Today's Extremes

State Highs State Lows

Community

WunderPhotos

Upload Photos

1,736,843 photos uploaded!

Nearby

Snow Depth

Station Depth Elevation
Rainy Pass 0 in 4780 ft
Harts Pass 0 in 6500 ft
Stevens Pass 0 in 4070 ft
Beaver Pass 0 in 3620 ft
Alpine Meadows 0 in 3500 ft

Earthquake Activity

City Distance Mag. Time & Date
No recent earthquake activity has been reported nearby.
Minimum magnitude displayed is 2.5.

Coastal Water Temperatures

Place Temperature
No Stations Reporting

Nearby Weather Stations

Station Location Temp. Windchill Dew Point Humidity Wind Precip. Elev Updated Type
RAWS STEHEKIN-AIRSTRIP WA, Stehekin, WA 61 °F - 57 °F 88% WNW  at  5 mph 0.01 in / hr 1229 ft 6:01 PM PDT MADIS
Twin Lakes, Winthrop, WA 62.8 °F - 60 °F 89% WNW  at  6.0 mph 0.00 in / hr 1867 ft 4:21 PM PDT Normal
HADS CHEWUCH RIVER NEAR WINTHROP 1WSW WA, Winthrop, WA 59 °F - - - North  at  - 0.00 in / hr 1754 ft 5:30 PM PDT MADIS
Edelweiss, Winthrop, WA 57.6 °F - 56 °F 94% North  at  0.0 mph 0.02 in / hr 2376 ft 7:06 PM PDT Normal
MesoWest Washington Pass , Stehekin, WA 49 °F 49 °F 48 °F 95% North  at  - 0.00 in / hr 5499 ft 4:00 PM PDT MADIS
MesoWest Washington Pass-Ridge to N , Stehekin, WA 45 °F 42 °F 45 °F 100% WSW  at  6 mph 0.00 in / hr 6630 ft 4:00 PM PDT MADIS

Show More Stations Show Fewer Stations